sensor_id;sensor_type;location;lat;lon;timestamp;temperature;humidity
13320;DHT22;59599;47.608;12.190;2023-08-30T08:34:46;14.80;99.90
13320;DHT22;59599;47.608;12.190;2023-08-30T08:42:04;14.80;99.90
13320;DHT22;59599;47.608;12.190;2023-08-30T08:44:32;14.90;99.90
13320;DHT22;59599;47.608;12.190;2023-08-30T08:46:59;15.00;99.90
13320;DHT22;59599;47.608;12.190;2023-08-30T08:49:26;15.10;99.90
13320;DHT22;59599;47.608;12.190;2023-08-30T08:51:54;15.30;99.90
13320;DHT22;59599;47.608;12.190;2023-08-30T08:54:21;15.50;99.90
13320;DHT22;59599;47.608;12.190;2023-08-30T09:04:06;16.10;99.90
13320;DHT22;59599;47.608;12.190;2023-08-30T09:06:33;16.20;99.90
13320;DHT22;59599;47.608;12.190;2023-08-30T09:13:51;16.70;99.90
13320;DHT22;59599;47.608;12.190;2023-08-30T09:16:16;16.80;99.90
13320;DHT22;59599;47.608;12.190;2023-08-30T09:18:42;16.90;99.90
13320;DHT22;59599;47.608;12.190;2023-08-30T09:21:09;17.00;99.90
13320;DHT22;59599;47.608;12.190;2023-08-30T09:23:35;17.10;99.90
13320;DHT22;59599;47.608;12.190;2023-08-30T09:26:01;17.10;99.90
13320;DHT22;59599;47.608;12.190;2023-08-30T09:28:28;17.20;99.90
13320;DHT22;59599;47.608;12.190;2023-08-30T09:30:54;17.30;99.90
13320;DHT22;59599;47.608;12.190;2023-08-30T09:33:29;17.30;99.90
13320;DHT22;59599;47.608;12.190;2023-08-30T09:35:54;17.40;99.90
13320;DHT22;59599;47.608;12.190;2023-08-30T09:43:13;17.50;99.90
13320;DHT22;59599;47.608;12.190;2023-08-30T09:45:39;17.60;99.90
13320;DHT22;59599;47.608;12.190;2023-08-30T09:48:05;17.70;99.90
13320;DHT22;59599;47.608;12.190;2023-08-30T09:50:34;17.80;99.90
13320;DHT22;59599;47.608;12.190;2023-08-30T09:53:05;18.00;99.90
13320;DHT22;59599;47.608;12.190;2023-08-30T09:55:31;18.10;99.90
13320;DHT22;59599;47.608;12.190;2023-08-30T09:57:58;18.30;99.90
13320;DHT22;59599;47.608;12.190;2023-08-30T10:02:50;18.60;99.90
13320;DHT22;59599;47.608;12.190;2023-08-30T10:05:16;18.70;99.90
13320;DHT22;59599;47.608;12.190;2023-08-30T10:07:43;18.80;99.90
13320;DHT22;59599;47.608;12.190;2023-08-30T10:10:09;18.80;99.90
13320;DHT22;59599;47.608;12.190;2023-08-30T10:12:36;18.90;99.90
13320;DHT22;59599;47.608;12.190;2023-08-30T10:15:02;18.90;99.90
13320;DHT22;59599;47.608;12.190;2023-08-30T10:17:31;19.10;99.90
13320;DHT22;59599;47.608;12.190;2023-08-30T10:19:59;19.20;99.90
13320;DHT22;59599;47.608;12.190;2023-08-30T10:24:57;19.30;99.90
13320;DHT22;59599;47.608;12.190;2023-08-30T10:27:24;19.50;99.90
13320;DHT22;59599;47.608;12.190;2023-08-30T10:29:50;19.60;99.90
13320;DHT22;59599;47.608;12.190;2023-08-30T10:32:20;19.90;99.90
13320;DHT22;59599;47.608;12.190;2023-08-30T10:34:50;20.00;99.90
13320;DHT22;59599;47.608;12.190;2023-08-30T10:37:16;20.30;99.90
13320;DHT22;59599;47.608;12.190;2023-08-30T10:39:42;20.40;99.90
13320;DHT22;59599;47.608;12.190;2023-08-30T10:44:35;20.60;99.90
13320;DHT22;59599;47.608;12.190;2023-08-30T10:47:24;20.50;99.90
13320;DHT22;59599;47.608;12.190;2023-08-30T10:49:54;20.40;99.90
13320;DHT22;59599;47.608;12.190;2023-08-30T10:52:21;20.20;99.90
13320;DHT22;59599;47.608;12.190;2023-08-30T10:57:17;19.90;99.90
13320;DHT22;59599;47.608;12.190;2023-08-30T11:00:05;19.70;99.90
13320;DHT22;59599;47.608;12.190;2023-08-30T11:02:37;19.60;99.90
13320;DHT22;59599;47.608;12.190;2023-08-30T11:05:05;19.50;99.90
13320;DHT22;59599;47.608;12.190;2023-08-30T11:07:31;19.30;99.90
13320;DHT22;59599;47.608;12.190;2023-08-30T11:12:24;18.90;99.90
13320;DHT22;59599;47.608;12.190;2023-08-30T11:14:55;18.80;99.90
13320;DHT22;59599;47.608;12.190;2023-08-30T11:17:20;18.80;99.90
13320;DHT22;59599;47.608;12.190;2023-08-30T11:19:50;18.70;99.90
13320;DHT22;59599;47.608;12.190;2023-08-30T11:22:16;18.90;99.90
13320;DHT22;59599;47.608;12.190;2023-08-30T11:24:42;19.10;99.90
13320;DHT22;59599;47.608;12.190;2023-08-30T11:27:09;19.20;99.90
13320;DHT22;59599;47.608;12.190;2023-08-30T11:32:01;18.80;99.90
13320;DHT22;59599;47.608;12.190;2023-08-30T11:39:19;18.20;99.90
13320;DHT22;59599;47.608;12.190;2023-08-30T11:44:11;18.30;99.90
13320;DHT22;59599;47.608;12.190;2023-08-30T11:46:37;18.10;99.90
13320;DHT22;59599;47.608;12.190;2023-08-30T11:49:03;18.10;99.90
13320;DHT22;59599;47.608;12.190;2023-08-30T11:51:29;18.10;99.90
13320;DHT22;59599;47.608;12.190;2023-08-30T11:53:55;18.20;99.90
13320;DHT22;59599;47.608;12.190;2023-08-30T11:56:21;18.20;99.90
13320;DHT22;59599;47.608;12.190;2023-08-30T12:01:15;18.40;99.90
13320;DHT22;59599;47.608;12.190;2023-08-30T12:03:41;18.30;99.90
13320;DHT22;59599;47.608;12.190;2023-08-30T12:06:12;18.50;99.90
13320;DHT22;59599;47.608;12.190;2023-08-30T12:08:38;18.50;99.90
13320;DHT22;59599;47.608;12.190;2023-08-30T12:11:03;18.70;99.90
13320;DHT22;59599;47.608;12.190;2023-08-30T12:13:33;18.90;99.90
13320;DHT22;59599;47.608;12.190;2023-08-30T12:15:59;19.10;99.90
13320;DHT22;59599;47.608;12.190;2023-08-30T12:18:27;19.20;99.90
13320;DHT22;59599;47.608;12.190;2023-08-30T12:20:58;19.30;99.90
13320;DHT22;59599;47.608;12.190;2023-08-30T12:23:28;19.30;99.90
13320;DHT22;59599;47.608;12.190;2023-08-30T12:25:58;19.30;99.90
13320;DHT22;59599;47.608;12.190;2023-08-30T12:30:50;19.50;99.90
13320;DHT22;59599;47.608;12.190;2023-08-30T12:33:19;19.60;99.90
13320;DHT22;59599;47.608;12.190;2023-08-30T12:35:44;19.60;99.90
13320;DHT22;59599;47.608;12.190;2023-08-30T12:38:10;19.50;99.90
13320;DHT22;59599;47.608;12.190;2023-08-30T12:40:37;19.40;99.90
13320;DHT22;59599;47.608;12.190;2023-08-30T12:43:04;19.40;99.90
13320;DHT22;59599;47.608;12.190;2023-08-30T12:45:29;19.40;99.90
13320;DHT22;59599;47.608;12.190;2023-08-30T12:47:55;19.50;99.90
13320;DHT22;59599;47.608;12.190;2023-08-30T12:50:21;19.50;99.90
13320;DHT22;59599;47.608;12.190;2023-08-30T12:52:47;19.60;99.90
13320;DHT22;59599;47.608;12.190;2023-08-30T12:57:40;19.70;99.90
13320;DHT22;59599;47.608;12.190;2023-08-30T13:09:50;19.80;99.90
13320;DHT22;59599;47.608;12.190;2023-08-30T13:12:15;19.80;99.90
13320;DHT22;59599;47.608;12.190;2023-08-30T13:14:42;19.90;99.90
13320;DHT22;59599;47.608;12.190;2023-08-30T13:19:33;19.90;99.90
13320;DHT22;59599;47.608;12.190;2023-08-30T13:29:17;20.00;99.90
13320;DHT22;59599;47.608;12.190;2023-08-30T13:34:09;20.10;99.90
13320;DHT22;59599;47.608;12.190;2023-08-30T13:36:34;20.10;99.90
13320;DHT22;59599;47.608;12.190;2023-08-30T13:39:02;20.00;99.90
13320;DHT22;59599;47.608;12.190;2023-08-30T13:46:19;20.10;99.90
13320;DHT22;59599;47.608;12.190;2023-08-30T13:48:45;20.10;99.90
13320;DHT22;59599;47.608;12.190;2023-08-30T13:51:12;20.20;99.90
13320;DHT22;59599;47.608;12.190;2023-08-30T14:03:22;19.90;99.90
13320;DHT22;59599;47.608;12.190;2023-08-30T14:25:15;19.60;99.90
13320;DHT22;59599;47.608;12.190;2023-08-30T14:27:41;19.60;99.90
13320;DHT22;59599;47.608;12.190;2023-08-30T14:30:07;19.60;99.90
13320;DHT22;59599;47.608;12.190;2023-08-30T14:32:32;19.60;99.90
13320;DHT22;59599;47.608;12.190;2023-08-30T14:39:53;19.60;99.90
13320;DHT22;59599;47.608;12.190;2023-08-30T14:42:19;19.60;99.90
13320;DHT22;59599;47.608;12.190;2023-08-30T14:44:49;19.50;99.90
13320;DHT22;59599;47.608;12.190;2023-08-30T14:56:58;19.10;99.90
13320;DHT22;59599;47.608;12.190;2023-08-30T14:59:23;19.10;99.90
13320;DHT22;59599;47.608;12.190;2023-08-30T15:06:41;19.20;99.90
13320;DHT22;59599;47.608;12.190;2023-08-30T15:09:09;19.20;99.90
13320;DHT22;59599;47.608;12.190;2023-08-30T15:11:35;19.00;99.90
13320;DHT22;59599;47.608;12.190;2023-08-30T15:14:01;19.00;99.90
13320;DHT22;59599;47.608;12.190;2023-08-30T15:23:44;19.00;99.90
13320;DHT22;59599;47.608;12.190;2023-08-30T15:31:08;19.00;99.90
13320;DHT22;59599;47.608;12.190;2023-08-30T15:33:34;19.00;99.90
13320;DHT22;59599;47.608;12.190;2023-08-30T15:36:00;19.00;99.90
13320;DHT22;59599;47.608;12.190;2023-08-30T15:38:25;19.00;99.90
13320;DHT22;59599;47.608;12.190;2023-08-30T15:40:53;19.00;99.90
13320;DHT22;59599;47.608;12.190;2023-08-30T15:43:20;19.00;99.90
13320;DHT22;59599;47.608;12.190;2023-08-30T15:50:37;19.00;99.90
13320;DHT22;59599;47.608;12.190;2023-08-30T15:53:03;19.00;99.90
13320;DHT22;59599;47.608;12.190;2023-08-30T15:55:28;18.90;99.90
13320;DHT22;59599;47.608;12.190;2023-08-30T15:57:55;19.00;99.90
13320;DHT22;59599;47.608;12.190;2023-08-30T16:00:20;19.00;99.90
13320;DHT22;59599;47.608;12.190;2023-08-30T16:10:04;19.00;99.90
13320;DHT22;59599;47.608;12.190;2023-08-30T16:12:30;18.90;99.90
13320;DHT22;59599;47.608;12.190;2023-08-30T16:22:13;18.80;99.90
13320;DHT22;59599;47.608;12.190;2023-08-30T16:24:39;18.80;99.90
13320;DHT22;59599;47.608;12.190;2023-08-30T16:31:56;18.80;99.90
13320;DHT22;59599;47.608;12.190;2023-08-30T16:39:17;18.80;99.90
13320;DHT22;59599;47.608;12.190;2023-08-30T16:41:43;18.60;99.90
13320;DHT22;59599;47.608;12.190;2023-08-30T16:44:10;18.70;99.90
13320;DHT22;59599;47.608;12.190;2023-08-30T16:46:35;18.60;99.90
13320;DHT22;59599;47.608;12.190;2023-08-30T16:53:53;18.50;99.90
13320;DHT22;59599;47.608;12.190;2023-08-30T17:08:30;18.30;99.90
13320;DHT22;59599;47.608;12.190;2023-08-30T17:11:03;18.20;99.90
13320;DHT22;59599;47.608;12.190;2023-08-30T17:15:56;18.00;99.90
13320;DHT22;59599;47.608;12.190;2023-08-30T17:23:15;17.70;99.90
13320;DHT22;59599;47.608;12.190;2023-08-30T17:32:58;17.10;99.90
13320;DHT22;59599;47.608;12.190;2023-08-30T17:35:24;17.00;99.90
13320;DHT22;59599;47.608;12.190;2023-08-30T17:40:17;16.70;99.90
13320;DHT22;59599;47.608;12.190;2023-08-30T17:42:43;16.70;99.90
13320;DHT22;59599;47.608;12.190;2023-08-30T17:45:09;16.70;99.90
13320;DHT22;59599;47.608;12.190;2023-08-30T17:47:35;16.70;99.90
13320;DHT22;59599;47.608;12.190;2023-08-30T17:50:00;16.60;99.90
13320;DHT22;59599;47.608;12.190;2023-08-30T17:54:52;16.70;99.90
13320;DHT22;59599;47.608;12.190;2023-08-30T18:02:10;16.50;99.90
13320;DHT22;59599;47.608;12.190;2023-08-30T18:04:37;16.50;99.90
13320;DHT22;59599;47.608;12.190;2023-08-30T18:07:03;16.50;99.90
13320;DHT22;59599;47.608;12.190;2023-08-30T18:09:29;16.50;99.90
13320;DHT22;59599;47.608;12.190;2023-08-30T18:11:56;16.50;99.90
13320;DHT22;59599;47.608;12.190;2023-08-30T18:21:41;16.20;99.90
13320;DHT22;59599;47.608;12.190;2023-08-30T18:26:43;15.90;99.90
13320;DHT22;59599;47.608;12.190;2023-08-30T18:29:09;15.90;99.90
13320;DHT22;59599;47.608;12.190;2023-08-30T18:38:53;15.80;99.90
13320;DHT22;59599;47.608;12.190;2023-08-30T18:43:46;15.80;99.90
13320;DHT22;59599;47.608;12.190;2023-08-30T18:46:12;15.90;99.90
13320;DHT22;59599;47.608;12.190;2023-08-30T18:48:41;15.80;99.90
13320;DHT22;59599;47.608;12.190;2023-08-30T18:51:09;15.90;99.90
13320;DHT22;59599;47.608;12.190;2023-08-30T18:53:36;15.90;99.90
13320;DHT22;59599;47.608;12.190;2023-08-30T18:58:27;15.90;99.90
13320;DHT22;59599;47.608;12.190;2023-08-30T19:00:53;15.80;99.90
13320;DHT22;59599;47.608;12.190;2023-08-30T19:05:44;15.80;99.90
13320;DHT22;59599;47.608;12.190;2023-08-30T19:08:10;15.80;99.90
13320;DHT22;59599;47.608;12.190;2023-08-30T19:13:04;15.80;99.90
13320;DHT22;59599;47.608;12.190;2023-08-30T19:22:47;15.90;99.90
13320;DHT22;59599;47.608;12.190;2023-08-30T19:25:13;15.90;99.90
13320;DHT22;59599;47.608;12.190;2023-08-30T19:27:41;15.90;99.90
13320;DHT22;59599;47.608;12.190;2023-08-30T19:30:08;15.90;99.90
13320;DHT22;59599;47.608;12.190;2023-08-30T19:32:34;15.70;99.90
13320;DHT22;59599;47.608;12.190;2023-08-30T19:37:26;15.50;99.90
13320;DHT22;59599;47.608;12.190;2023-08-30T19:39:54;15.40;99.90
13320;DHT22;59599;47.608;12.190;2023-08-30T19:44:49;15.50;99.90
13320;DHT22;59599;47.608;12.190;2023-08-30T19:47:29;15.50;99.90
13320;DHT22;59599;47.608;12.190;2023-08-30T19:49:55;15.40;99.90
13320;DHT22;59599;47.608;12.190;2023-08-30T19:54:50;15.30;99.90
13320;DHT22;59599;47.608;12.190;2023-08-30T19:57:16;15.30;99.90
13320;DHT22;59599;47.608;12.190;2023-08-30T19:59:42;15.40;99.90
13320;DHT22;59599;47.608;12.190;2023-08-30T20:02:08;15.40;99.90
13320;DHT22;59599;47.608;12.190;2023-08-30T20:07:01;15.30;99.90
13320;DHT22;59599;47.608;12.190;2023-08-30T20:09:26;15.30;99.90
13320;DHT22;59599;47.608;12.190;2023-08-30T20:11:52;15.40;99.90
13320;DHT22;59599;47.608;12.190;2023-08-30T20:14:17;15.50;99.90
13320;DHT22;59599;47.608;12.190;2023-08-30T20:16:47;15.50;99.90
13320;DHT22;59599;47.608;12.190;2023-08-30T20:19:16;15.60;99.90
13320;DHT22;59599;47.608;12.190;2023-08-30T20:21:43;15.60;99.90
13320;DHT22;59599;47.608;12.190;2023-08-30T20:24:10;15.60;99.90
13320;DHT22;59599;47.608;12.190;2023-08-30T20:26:36;15.60;99.90
13320;DHT22;59599;47.608;12.190;2023-08-30T20:31:29;15.40;99.90
13320;DHT22;59599;47.608;12.190;2023-08-30T20:41:14;15.30;99.90
13320;DHT22;59599;47.608;12.190;2023-08-30T20:43:40;15.30;99.90
13320;DHT22;59599;47.608;12.190;2023-08-30T20:51:01;15.20;99.90
13320;DHT22;59599;47.608;12.190;2023-08-30T20:53:37;15.00;99.90
13320;DHT22;59599;47.608;12.190;2023-08-30T20:56:06;14.90;99.90
13320;DHT22;59599;47.608;12.190;2023-08-30T20:58:35;14.90;99.90
13320;DHT22;59599;47.608;12.190;2023-08-30T21:10:47;15.00;99.90
13320;DHT22;59599;47.608;12.190;2023-08-30T21:13:13;15.10;99.90
13320;DHT22;59599;47.608;12.190;2023-08-30T21:15:39;15.10;99.90
13320;DHT22;59599;47.608;12.190;2023-08-30T21:18:04;15.10;99.90
13320;DHT22;59599;47.608;12.190;2023-08-30T21:25:22;15.00;99.90
13320;DHT22;59599;47.608;12.190;2023-08-30T21:47:18;14.70;99.90
13320;DHT22;59599;47.608;12.190;2023-08-30T21:49:43;14.90;99.90
13320;DHT22;59599;47.608;12.190;2023-08-30T21:54:36;14.80;99.90
13320;DHT22;59599;47.608;12.190;2023-08-30T21:57:02;14.70;99.90
13320;DHT22;59599;47.608;12.190;2023-08-30T21:59:28;14.70;99.90
13320;DHT22;59599;47.608;12.190;2023-08-30T23:49:36;13.80;99.90
